createdAt,value
2022-08-11T00:01:26.895Z,6.13
2022-08-11T00:04:03.759Z,7.95
2022-08-11T00:06:30.951Z,7.72
2022-08-11T00:08:58.930Z,6.27
2022-08-11T00:11:37.919Z,7.00
2022-08-11T00:14:22.523Z,7.05
2022-08-11T00:17:01.413Z,7.60
2022-08-11T00:20:14.038Z,11.45
2022-08-11T00:22:23.565Z,6.10
2022-08-11T00:24:53.650Z,6.68
2022-08-11T00:27:34.529Z,8.05
2022-08-11T00:30:01.817Z,10.68
2022-08-11T00:32:30.088Z,7.68
2022-08-11T00:35:54.979Z,8.17
2022-08-11T00:37:50.009Z,8.70
2022-08-11T00:40:36.679Z,9.13
2022-08-11T00:43:20.439Z,7.93
2022-08-11T00:46:14.108Z,7.03
2022-08-11T00:48:59.394Z,7.67
2022-08-11T00:52:04.217Z,10.05
2022-08-11T00:55:02.912Z,7.57
2022-08-11T00:57:38.818Z,7.70
2022-08-11T01:00:23.329Z,7.47
2022-08-11T01:03:18.289Z,9.17
2022-08-11T01:06:17.441Z,7.78
2022-08-11T01:09:02.755Z,9.13
2022-08-11T01:11:59.471Z,7.15
2022-08-11T01:15:03.431Z,9.60
2022-08-11T01:17:30.187Z,8.67
2022-08-11T01:20:44.666Z,7.32
2022-08-11T01:23:09.323Z,7.45
2022-08-11T01:25:57.183Z,9.18
2022-08-11T01:29:02.252Z,7.82
2022-08-11T01:31:31.541Z,9.40
2022-08-11T01:34:13.275Z,8.38
2022-08-11T01:37:10.603Z,8.75
2022-08-11T01:39:55.821Z,11.43
2022-08-11T01:43:02.774Z,9.80
2022-08-11T01:46:01.669Z,8.93
2022-08-11T01:48:53.220Z,10.32
2022-08-11T01:51:22.814Z,8.82
2022-08-11T01:54:18.950Z,10.20
2022-08-11T01:57:19.802Z,9.30
2022-08-11T02:00:16.142Z,11.20
2022-08-11T02:02:58.887Z,9.35
2022-08-11T02:05:25.611Z,9.93
2022-08-11T02:08:05.987Z,8.52
2022-08-11T02:11:09.884Z,8.05
2022-08-11T02:14:00.939Z,7.73
2022-08-11T02:17:06.144Z,10.25
2022-08-11T02:20:00.237Z,9.82
2022-08-11T02:22:54.637Z,10.73
2022-08-11T02:25:49.003Z,9.60
2022-08-11T02:28:20.518Z,10.23
2022-08-11T02:32:14.793Z,13.63
2022-08-11T02:34:18.817Z,15.10
2022-08-11T02:36:58.712Z,13.75
2022-08-11T02:39:34.498Z,10.77
2022-08-11T02:42:35.887Z,12.17
2022-08-11T02:45:12.506Z,12.43
2022-08-11T02:48:16.757Z,11.18
2022-08-11T02:51:03.459Z,11.85
2022-08-11T02:53:56.432Z,10.18
2022-08-11T02:56:52.133Z,11.43
2022-08-11T02:59:51.951Z,9.13
2022-08-11T03:02:45.989Z,10.18
2022-08-11T03:05:17.640Z,10.40
2022-08-11T03:08:11.411Z,9.23
2022-08-11T03:11:41.703Z,9.27
2022-08-11T03:14:45.775Z,8.15
2022-08-11T03:17:34.108Z,7.50
2022-08-11T03:20:33.144Z,7.28
2022-08-11T03:23:45.331Z,8.18
2022-08-11T03:26:28.118Z,8.97
2022-08-11T03:29:01.246Z,8.23
2022-08-11T03:31:36.806Z,8.95
2022-08-11T03:34:09.206Z,9.32
2022-08-11T03:42:02.591Z,6.17
2022-08-11T03:44:43.547Z,7.88
2022-08-11T03:47:34.463Z,10.57
2022-08-11T03:50:24.833Z,8.98
2022-08-11T03:53:16.482Z,9.07
2022-08-11T03:56:01.806Z,10.73
2022-08-11T03:58:39.610Z,8.52
2022-08-11T04:01:46.857Z,7.88
2022-08-11T04:05:07.326Z,6.95
2022-08-11T04:07:46.079Z,8.23
2022-08-11T04:10:37.989Z,7.83
2022-08-11T04:13:29.063Z,6.38
2022-08-11T04:16:28.463Z,8.32
2022-08-11T04:19:32.334Z,9.70
2022-08-11T04:22:24.096Z,8.23
2022-08-11T04:25:11.967Z,7.83
2022-08-11T04:28:28.824Z,7.65
2022-08-11T04:31:51.739Z,6.35
2022-08-11T04:34:32.173Z,6.32
2022-08-11T04:37:31.222Z,7.55
2022-08-11T04:40:25.891Z,6.70
2022-08-11T04:43:19.951Z,7.20
2022-08-11T04:46:10.767Z,9.38
2022-08-11T04:49:36.857Z,9.20
2022-08-11T04:52:49.698Z,7.43
2022-08-11T04:55:38.087Z,5.40
2022-08-11T04:58:36.763Z,9.50
2022-08-11T05:01:36.584Z,13.70
2022-08-11T05:04:28.731Z,6.60
2022-08-11T05:07:07.707Z,6.72
2022-08-11T05:09:49.358Z,6.00
2022-08-11T05:12:41.071Z,6.18
2022-08-11T05:15:32.498Z,6.03
2022-08-11T05:18:43.187Z,7.38
2022-08-11T05:21:33.887Z,5.90
2022-08-11T05:24:40.852Z,5.40
2022-08-11T05:27:32.686Z,5.65
2022-08-11T05:30:23.070Z,7.38
2022-08-11T05:33:40.085Z,6.65
2022-08-11T05:36:18.007Z,5.75
2022-08-11T05:39:14.863Z,7.20
2022-08-11T05:42:00.830Z,5.85
2022-08-11T05:44:48.766Z,6.28
2022-08-11T05:47:44.138Z,7.28
2022-08-11T05:50:35.212Z,5.78
2022-08-11T05:53:27.205Z,6.70
2022-08-11T05:56:15.301Z,8.20
2022-08-11T05:58:46.935Z,6.80
2022-08-11T06:01:21.787Z,6.03
2022-08-11T06:04:10.547Z,6.57
2022-08-11T06:06:45.185Z,10.53
2022-08-11T06:09:14.532Z,7.85
2022-08-11T06:11:44.935Z,10.13
2022-08-11T06:14:13.398Z,8.07
2022-08-11T06:16:42.808Z,8.88
2022-08-11T06:19:10.462Z,6.67
2022-08-11T06:21:38.187Z,8.68
2022-08-11T06:24:12.222Z,7.32
2022-08-11T06:27:01.591Z,9.35
2022-08-11T06:29:37.671Z,9.13
2022-08-11T06:32:15.644Z,7.53
2022-08-11T06:34:59.334Z,7.13
2022-08-11T06:37:45.380Z,7.70
2022-08-11T06:41:15.815Z,8.15
2022-08-11T06:43:55.978Z,6.63
2022-08-11T06:46:32.441Z,8.03
2022-08-11T06:49:03.248Z,6.63
2022-08-11T06:51:32.584Z,8.73
2022-08-11T06:54:04.574Z,5.85
2022-08-11T07:00:03.796Z,5.87
2022-08-11T07:02:34.528Z,6.00
2022-08-11T07:05:11.516Z,6.70
2022-08-11T07:08:35.359Z,6.63
2022-08-11T07:11:59.441Z,6.13
2022-08-11T07:14:48.716Z,7.13
2022-08-11T07:17:21.930Z,10.98
2022-08-11T07:20:13.747Z,6.00
2022-08-11T07:23:01.934Z,7.15
2022-08-11T07:25:49.275Z,6.95
2022-08-11T07:28:43.766Z,6.37
2022-08-11T07:31:37.340Z,7.88
2022-08-11T07:34:35.355Z,5.60
2022-08-11T07:37:09.398Z,6.00
2022-08-11T07:39:37.999Z,7.47
2022-08-11T07:42:09.972Z,8.43
2022-08-11T07:44:56.146Z,10.52
2022-08-11T07:47:42.056Z,6.50
2022-08-11T07:50:28.097Z,7.32
2022-08-11T07:52:56.203Z,8.63
2022-08-11T07:55:49.002Z,7.87
2022-08-11T07:58:39.532Z,6.65
2022-08-11T08:01:38.334Z,6.95
2022-08-11T08:04:25.079Z,8.30
2022-08-11T08:07:11.300Z,6.60
2022-08-11T08:09:57.472Z,10.10
2022-08-11T08:12:44.703Z,6.65
2022-08-11T08:15:32.592Z,8.82
2022-08-11T08:18:20.399Z,6.40
2022-08-11T08:20:50.299Z,7.45
2022-08-11T08:23:33.308Z,5.33
2022-08-11T08:26:04.506Z,6.00
2022-08-11T08:28:33.667Z,7.15
2022-08-11T08:31:00.803Z,6.50
2022-08-11T08:33:31.905Z,6.75
2022-08-11T08:36:17.137Z,7.40
2022-08-11T08:38:54.101Z,6.35
2022-08-11T08:41:28.253Z,5.90
2022-08-11T08:44:15.156Z,7.35
2022-08-11T08:46:52.275Z,8.38
2022-08-11T08:49:23.738Z,5.87
2022-08-11T08:52:19.970Z,6.07
2022-08-11T08:54:44.455Z,5.82
2022-08-11T08:57:13.318Z,7.25
2022-08-11T08:59:49.298Z,6.18
2022-08-11T09:02:34.584Z,8.70
2022-08-11T09:05:07.775Z,6.18
2022-08-11T09:07:38.867Z,5.85
2022-08-11T09:10:08.500Z,6.10
2022-08-11T09:12:39.214Z,6.32
2022-08-11T09:15:10.311Z,4.00
2022-08-11T09:17:41.956Z,5.50
2022-08-11T09:20:15.427Z,4.90
2022-08-11T09:23:41.711Z,4.50
2022-08-11T09:26:14.979Z,6.50
2022-08-11T09:28:47.208Z,5.40
2022-08-11T09:31:14.912Z,6.05
2022-08-11T09:33:43.237Z,4.65
2022-08-11T09:36:31.075Z,5.28
2022-08-11T09:39:18.913Z,4.53
2022-08-11T09:42:00.834Z,3.70
2022-08-11T09:44:50.132Z,5.82
2022-08-11T09:47:29.693Z,4.22
2022-08-11T09:50:02.140Z,5.60
2022-08-11T09:52:32.263Z,6.20
2022-08-11T09:55:00.876Z,4.10
2022-08-11T09:57:46.150Z,4.53
2022-08-11T10:00:15.468Z,7.88
2022-08-11T10:02:53.631Z,5.07
2022-08-11T10:05:40.316Z,4.07
2022-08-11T10:08:11.979Z,4.77
2022-08-11T10:10:41.118Z,4.25
2022-08-11T10:14:04.877Z,6.13
2022-08-11T10:16:15.675Z,4.68
2022-08-11T10:18:52.201Z,3.88
2022-08-11T10:22:05.164Z,5.33
2022-08-11T10:24:51.564Z,5.05
2022-08-11T10:27:18.720Z,5.97
2022-08-11T10:30:04.486Z,4.00
2022-08-11T10:32:58.681Z,3.60
2022-08-11T10:35:31.489Z,3.90
2022-08-11T10:38:08.747Z,4.57
2022-08-11T10:40:41.712Z,3.95
2022-08-11T10:44:01.185Z,3.95
2022-08-11T10:46:29.574Z,3.65
2022-08-11T10:48:58.331Z,5.63
2022-08-11T10:51:51.096Z,3.63
2022-08-11T10:54:41.061Z,4.25
2022-08-11T10:57:27.854Z,4.13
2022-08-11T10:59:56.665Z,3.60
2022-08-11T11:02:24.167Z,5.47
2022-08-11T11:05:09.474Z,4.65
2022-08-11T11:07:45.174Z,4.65
2022-08-11T11:10:12.577Z,4.20
2022-08-11T11:13:04.719Z,4.50
2022-08-11T11:15:54.451Z,4.33
2022-08-11T11:18:27.087Z,5.30
2022-08-11T11:20:58.725Z,4.78
2022-08-11T11:23:33.376Z,4.88
2022-08-11T11:26:16.776Z,3.45
2022-08-11T11:29:31.607Z,3.73
2022-08-11T11:32:18.334Z,5.13
2022-08-11T11:35:16.297Z,3.97
2022-08-11T11:38:03.765Z,3.60
2022-08-11T11:40:33.200Z,3.92
2022-08-11T11:43:00.852Z,9.90
2022-08-11T11:45:28.453Z,7.90
2022-08-11T11:47:59.067Z,4.13
2022-08-11T11:50:31.472Z,5.25
2022-08-11T11:53:03.664Z,3.60
2022-08-11T11:55:31.103Z,3.60
2022-08-11T11:58:19.090Z,6.03
2022-08-11T12:01:06.254Z,4.07
2022-08-11T12:03:35.429Z,3.90
2022-08-11T12:06:04.223Z,4.18
2022-08-11T12:08:32.027Z,5.03
2022-08-11T12:11:20.602Z,4.20
2022-08-11T12:13:50.965Z,3.20
2022-08-11T12:16:34.114Z,6.18
2022-08-11T12:19:13.139Z,4.68
2022-08-11T12:22:03.929Z,4.50
2022-08-11T12:25:01.206Z,3.80
2022-08-11T12:27:30.826Z,5.20
2022-08-11T12:30:00.893Z,3.10
2022-08-11T12:32:31.410Z,3.40
2022-08-11T12:34:58.898Z,4.30
2022-08-11T12:37:30.955Z,3.75
2022-08-11T12:40:43.494Z,5.95
2022-08-11T12:43:38.626Z,4.45
2022-08-11T12:46:29.575Z,4.63
2022-08-11T12:49:20.481Z,5.10
2022-08-11T12:52:10.954Z,3.42
2022-08-11T12:55:00.304Z,4.82
2022-08-11T12:57:58.288Z,3.35
2022-08-11T13:00:48.561Z,3.75
2022-08-11T13:03:37.378Z,7.47
2022-08-11T13:06:05.622Z,3.30
2022-08-11T13:08:36.744Z,3.58
2022-08-11T13:11:23.555Z,5.55
2022-08-11T13:13:57.191Z,5.55
2022-08-11T13:16:57.668Z,8.80
2022-08-11T13:19:25.298Z,5.57
2022-08-11T13:21:53.185Z,4.65
2022-08-11T13:24:22.098Z,4.05
2022-08-11T13:26:50.539Z,7.60
2022-08-11T13:29:23.390Z,3.40
2022-08-11T13:31:52.536Z,7.43
2022-08-11T13:34:21.334Z,4.43
2022-08-11T13:36:52.229Z,5.97
2022-08-11T13:39:22.846Z,4.55
2022-08-11T13:41:51.886Z,3.20
2022-08-11T13:44:25.336Z,3.55
2022-08-11T13:46:57.654Z,3.25
2022-08-11T13:49:25.898Z,4.45
2022-08-11T13:51:53.099Z,3.70
2022-08-11T13:54:23.934Z,3.80
2022-08-11T13:56:54.755Z,4.40
2022-08-11T13:59:28.182Z,4.63
2022-08-11T14:02:21.965Z,3.95
2022-08-11T14:04:56.892Z,3.97
2022-08-11T14:07:27.530Z,4.13
2022-08-11T14:09:59.334Z,3.45
2022-08-11T14:12:56.137Z,4.88
2022-08-11T14:15:31.420Z,4.00
2022-08-11T14:18:05.145Z,4.45
2022-08-11T14:20:52.968Z,4.03
2022-08-11T14:23:43.739Z,5.07
2022-08-11T14:26:23.738Z,4.53
2022-08-11T14:28:55.117Z,4.38
2022-08-11T14:31:26.924Z,3.80
2022-08-11T14:34:02.016Z,3.70
2022-08-11T14:36:32.777Z,4.22
2022-08-11T14:39:03.511Z,4.15
2022-08-11T14:42:11.464Z,3.63
2022-08-11T14:44:57.973Z,3.60
2022-08-11T14:47:27.154Z,3.83
2022-08-11T14:50:10.291Z,5.35
2022-08-11T14:52:43.384Z,3.67
2022-08-11T14:55:29.686Z,3.65
2022-08-11T14:57:57.295Z,4.35
2022-08-11T15:00:25.509Z,3.13
2022-08-11T15:03:13.463Z,3.60
2022-08-11T15:05:57.957Z,4.78
2022-08-11T15:08:46.583Z,4.85
2022-08-11T15:11:33.632Z,4.43
2022-08-11T15:14:02.685Z,3.63
2022-08-11T15:16:48.230Z,3.63
2022-08-11T15:19:16.822Z,3.50
2022-08-11T15:22:02.500Z,3.20
2022-08-11T15:24:32.737Z,4.63
2022-08-11T15:27:21.944Z,4.00
2022-08-11T15:30:09.913Z,3.60
2022-08-11T15:33:04.903Z,4.13
2022-08-11T15:35:53.769Z,3.35
2022-08-11T15:38:23.059Z,4.28
2022-08-11T15:41:13.169Z,6.20
2022-08-11T15:44:07.563Z,4.22
2022-08-11T15:46:57.862Z,3.55
2022-08-11T15:50:10.796Z,3.55
2022-08-11T15:52:31.818Z,3.42
2022-08-11T15:55:02.324Z,5.13
2022-08-11T15:57:49.243Z,3.60
2022-08-11T16:00:35.555Z,4.43
2022-08-11T16:03:23.343Z,5.07
2022-08-11T16:05:53.188Z,4.32
2022-08-11T16:08:32.659Z,3.33
2022-08-11T16:11:03.976Z,4.13
2022-08-11T16:13:37.776Z,3.38
2022-08-11T16:16:14.562Z,3.67
2022-08-11T16:18:52.088Z,5.95
2022-08-11T16:21:26.032Z,3.80
2022-08-11T16:24:07.168Z,4.85
2022-08-11T16:27:07.692Z,4.55
2022-08-11T16:29:25.798Z,6.22
2022-08-11T16:32:14.402Z,3.38
2022-08-11T16:35:02.634Z,3.53
2022-08-11T16:37:52.290Z,3.33
2022-08-11T16:40:22.644Z,3.80
2022-08-11T16:43:11.523Z,3.75
2022-08-11T16:45:59.633Z,3.42
2022-08-11T16:48:33.449Z,6.13
2022-08-11T16:51:04.729Z,5.82
2022-08-11T16:53:59.929Z,4.47
2022-08-11T16:56:24.214Z,4.57
2022-08-11T16:59:13.438Z,4.65
2022-08-11T17:02:05.055Z,4.23
2022-08-11T17:05:09.191Z,3.63
2022-08-11T17:07:57.938Z,4.47
2022-08-11T17:10:56.695Z,5.28
2022-08-11T17:13:37.155Z,5.28
2022-08-11T17:16:08.287Z,6.67
2022-08-11T17:18:56.330Z,4.20
2022-08-11T17:21:27.769Z,3.13
2022-08-11T17:23:59.499Z,3.10
2022-08-11T17:26:53.892Z,3.65
2022-08-11T17:29:25.785Z,3.50
2022-08-11T17:32:13.062Z,3.45
2022-08-11T17:35:00.787Z,3.97
2022-08-11T17:37:30.604Z,6.03
2022-08-11T17:39:59.482Z,7.53
2022-08-11T17:42:48.047Z,5.13
2022-08-11T17:45:36.978Z,4.85
2022-08-11T17:48:24.255Z,4.20
2022-08-11T17:51:39.630Z,3.30
2022-08-11T17:54:25.822Z,5.30
2022-08-11T17:57:21.314Z,3.17
2022-08-11T17:59:53.879Z,3.65
2022-08-11T18:02:56.934Z,4.07
2022-08-11T18:05:30.344Z,4.88
2022-08-11T18:08:18.432Z,4.07
2022-08-11T18:11:05.185Z,6.80
2022-08-11T18:13:54.643Z,6.93
2022-08-11T18:16:40.207Z,3.92
2022-08-11T18:19:26.591Z,3.13
2022-08-11T18:22:16.236Z,5.82
2022-08-11T18:25:14.043Z,5.27
2022-08-11T18:28:05.103Z,5.35
2022-08-11T18:31:03.875Z,5.55
2022-08-11T18:34:08.250Z,5.60
2022-08-11T18:37:00.700Z,3.70
2022-08-11T18:39:56.327Z,3.50
2022-08-11T18:42:43.335Z,5.30
2022-08-11T18:45:41.080Z,3.80
2022-08-11T18:48:35.846Z,5.68
2022-08-11T18:51:31.302Z,5.82
2022-08-11T18:54:27.604Z,5.17
2022-08-11T18:57:16.450Z,3.38
2022-08-11T19:00:04.367Z,3.30
2022-08-11T19:02:51.387Z,3.67
2022-08-11T19:06:35.842Z,5.32
2022-08-11T19:08:55.134Z,4.10
2022-08-11T19:11:43.729Z,5.13
2022-08-11T19:14:34.352Z,3.80
2022-08-11T19:17:45.157Z,5.10
2022-08-11T19:20:39.123Z,4.28
2022-08-11T19:23:27.464Z,5.87
2022-08-11T19:26:16.278Z,4.53
2022-08-11T19:29:04.514Z,3.63
2022-08-11T19:31:51.510Z,4.38
2022-08-11T19:34:39.478Z,3.50
2022-08-11T19:37:26.377Z,7.10
2022-08-11T19:40:13.547Z,4.70
2022-08-11T19:43:02.129Z,4.25
2022-08-11T19:45:52.407Z,4.32
2022-08-11T19:48:42.276Z,4.47
2022-08-11T19:51:30.951Z,4.30
2022-08-11T19:54:17.827Z,5.00
2022-08-11T19:57:05.960Z,4.45
2022-08-11T19:59:53.204Z,4.03
2022-08-11T20:02:38.634Z,4.75
2022-08-11T20:05:25.294Z,4.93
2022-08-11T20:08:14.120Z,4.18
2022-08-11T20:11:00.811Z,4.32
2022-08-11T20:13:48.195Z,3.63
2022-08-11T20:16:39.539Z,5.07
2022-08-11T20:19:54.700Z,5.43
2022-08-11T20:22:36.122Z,4.20
2022-08-11T20:25:24.364Z,4.00
2022-08-11T20:28:10.507Z,5.43
2022-08-11T20:30:56.740Z,4.97
2022-08-11T20:33:42.932Z,4.07
2022-08-11T20:36:29.338Z,4.82
2022-08-11T20:39:17.361Z,3.92
2022-08-11T20:42:05.556Z,5.32
2022-08-11T20:44:53.779Z,7.68
2022-08-11T20:47:56.467Z,4.07
2022-08-11T20:50:48.023Z,4.70
2022-08-11T20:53:40.496Z,3.90
2022-08-11T20:56:30.194Z,4.35
2022-08-11T20:59:18.769Z,4.32
2022-08-11T21:02:09.726Z,4.30
2022-08-11T21:05:00.444Z,3.95
2022-08-11T21:10:59.286Z,4.57
2022-08-11T21:13:51.272Z,6.82
2022-08-11T21:16:47.522Z,6.53
2022-08-11T21:19:59.718Z,6.90
2022-08-11T21:23:18.479Z,7.63
2022-08-11T21:26:14.659Z,8.70
2022-08-11T21:29:01.607Z,7.30
2022-08-11T21:31:50.612Z,4.17
2022-08-11T21:34:39.875Z,4.70
2022-08-11T21:37:27.614Z,5.82
2022-08-11T21:40:17.524Z,5.68
2022-08-11T21:43:05.310Z,3.83
2022-08-11T21:45:54.214Z,3.97
2022-08-11T21:48:41.491Z,4.60
2022-08-11T21:51:26.678Z,5.43
2022-08-11T21:54:12.510Z,8.60
2022-08-11T21:56:58.751Z,6.03
2022-08-11T22:00:00.778Z,4.70
2022-08-11T22:02:48.984Z,4.45
2022-08-11T22:05:39.918Z,6.93
2022-08-11T22:08:26.737Z,4.05
2022-08-11T22:11:12.974Z,4.50
2022-08-11T22:14:06.060Z,5.77
2022-08-11T22:16:54.800Z,5.00
2022-08-11T22:19:42.038Z,4.45
2022-08-11T22:22:29.962Z,4.22
2022-08-11T22:25:18.459Z,4.95
2022-08-11T22:28:03.963Z,4.67
2022-08-11T22:30:49.214Z,4.22
2022-08-11T22:33:35.566Z,6.60
2022-08-11T22:36:23.412Z,9.30
2022-08-11T22:39:10.255Z,4.35
2022-08-11T22:41:55.587Z,4.00
2022-08-11T22:44:41.035Z,5.53
2022-08-11T22:47:38.418Z,6.47
2022-08-11T22:50:27.044Z,5.75
2022-08-11T22:53:13.656Z,4.82
2022-08-11T22:55:59.839Z,5.00
2022-08-11T22:58:46.015Z,6.00
2022-08-11T23:01:35.842Z,4.43
2022-08-11T23:04:21.619Z,4.68
2022-08-11T23:07:08.294Z,4.78
2022-08-11T23:09:54.443Z,5.20
2022-08-11T23:12:41.171Z,5.85
2022-08-11T23:15:32.686Z,4.68
2022-08-11T23:18:20.995Z,6.10
2022-08-11T23:21:06.876Z,6.80
2022-08-11T23:23:53.802Z,5.70
2022-08-11T23:26:41.204Z,5.35
2022-08-11T23:29:26.953Z,4.85
2022-08-11T23:32:12.702Z,5.15
2022-08-11T23:35:36.931Z,4.07
2022-08-11T23:38:05.143Z,5.47
2022-08-11T23:40:50.364Z,6.00
2022-08-11T23:43:42.849Z,4.82
2022-08-11T23:46:28.784Z,5.75
2022-08-11T23:49:23.645Z,5.47
2022-08-11T23:52:10.909Z,5.43
2022-08-11T23:54:56.622Z,4.20
2022-08-11T23:57:48.836Z,4.35
